Time;durP1;ratioP1;P1;durP2;ratioP2;P2;SDS_P1;SDS_P2;PMS_P1;PMS_P2;Temp;Humidity;BMP_temperature;BMP_pressure;BME280_temperature;BME280_humidity;BME280_pressure;Samples;Min_cycle;Max_cycle;Signal;HPM_P1;HPM_P2
2022/08/13 00:01:36;;;;;;;7.38;3.13;;;;;;;21.89;43.99;101566.66;5095963;28;20040;-62
2022/08/13 00:04:13;;;;;;;8.43;3.63;;;;;;;21.82;43.54;101561.09;5096170;28;20071;-63
2022/08/13 00:09:39;;;;;;;7.28;3.13;;;;;;;21.78;44.14;101570.44;5090720;28;20056;-55
2022/08/13 00:15:01;;;;;;;8.50;3.15;;;;;;;21.61;44.02;101573.00;5096136;28;20035;-62
2022/08/13 00:17:31;;;;;;;10.27;3.20;;;;;;;21.67;43.22;101573.38;5095930;28;20495;-63
2022/08/13 00:20:22;;;;;;;7.88;2.50;;;;;;;21.64;43.58;101569.19;5095766;28;20044;-62
2022/08/13 00:22:55;;;;;;;7.10;2.63;;;;;;;21.67;44.67;101568.03;5095760;28;20048;-55
2022/08/13 00:25:30;;;;;;;7.55;2.60;;;;;;;21.58;44.58;101569.78;5093965;28;20051;-52
2022/08/13 00:28:16;;;;;;;5.40;2.63;;;;;;;21.51;44.57;101574.06;5093906;28;20058;-54
2022/08/13 00:30:46;;;;;;;7.03;2.88;;;;;;;21.52;44.98;101570.38;5095748;28;20481;-63
2022/08/13 00:33:17;;;;;;;10.02;3.00;;;;;;;21.47;45.04;101573.50;5095006;28;20078;-55
2022/08/13 00:36:00;;;;;;;6.43;2.88;;;;;;;21.41;46.33;101568.78;5095532;28;20504;-63
2022/08/13 00:38:29;;;;;;;5.47;2.78;;;;;;;21.35;47.30;101575.59;5095539;28;20066;-63
2022/08/13 00:41:13;;;;;;;5.18;2.55;;;;;;;21.30;46.78;101585.91;5095104;28;20076;-55
2022/08/13 00:43:46;;;;;;;7.63;3.00;;;;;;;21.22;48.26;101580.47;5095033;28;20102;-55
2022/08/13 00:46:14;;;;;;;6.50;2.60;;;;;;;21.26;47.86;101571.16;5094004;28;20514;-63
2022/08/13 00:48:46;;;;;;;9.05;2.67;;;;;;;21.20;48.33;101569.94;5095537;28;20531;-62
2022/08/13 00:51:23;;;;;;;6.75;2.70;;;;;;;21.16;48.88;101576.59;5095107;28;20048;-55
2022/08/13 00:54:16;;;;;;;5.57;2.40;;;;;;;21.06;49.10;101570.44;5095337;28;20051;-52
2022/08/13 00:56:46;;;;;;;6.88;3.00;;;;;;;21.03;49.12;101570.75;5095703;28;20047;-62
2022/08/13 00:59:16;;;;;;;6.72;2.70;;;;;;;20.99;50.16;101569.38;5093706;28;20044;-55
2022/08/13 01:01:47;;;;;;;6.00;2.70;;;;;;;20.92;50.12;101569.97;5095111;28;20047;-55
2022/08/13 01:04:19;;;;;;;;;;;;;;;20.92;50.85;101580.66;5095270;28;20048;-55
2022/08/13 01:06:54;;;;;;;6.60;2.80;;;;;;;20.83;51.40;101572.72;5094955;28;19920;-55
2022/08/13 01:09:29;;;;;;;5.82;2.50;;;;;;;20.71;52.01;101566.72;5094745;28;20414;-55
2022/08/13 01:12:20;;;;;;;4.60;2.20;;;;;;;20.77;52.51;101580.31;5094603;28;20130;-56
2022/08/13 01:14:55;;;;;;;6.03;2.40;;;;;;;20.71;52.75;101578.25;5093193;28;20586;-56
2022/08/13 01:17:24;;;;;;;7.25;2.70;;;;;;;20.60;53.59;101581.94;5094813;28;20066;-62
2022/08/13 01:20:21;;;;;;;4.40;2.20;;;;;;;20.61;53.46;101582.78;5094750;28;20040;-56
2022/08/13 01:23:04;;;;;;;7.22;2.50;;;;;;;20.50;53.58;101580.31;5094613;28;20058;-62
2022/08/13 01:25:36;;;;;;;4.05;1.90;;;;;;;20.50;53.16;101581.13;5094256;28;20048;-63
2022/08/13 01:28:22;;;;;;;4.70;2.55;;;;;;;20.43;53.65;101577.38;5094278;28;20127;-54
2022/08/13 01:30:52;;;;;;;4.10;2.20;;;;;;;20.37;53.72;101585.97;5094413;28;20051;-62
2022/08/13 01:33:22;;;;;;;4.63;2.45;;;;;;;20.36;54.55;101581.63;5094074;28;20040;-55
2022/08/13 01:35:52;;;;;;;4.95;2.45;;;;;;;20.24;55.61;101580.97;5094092;28;20504;-62
2022/08/13 01:38:23;;;;;;;5.20;2.10;;;;;;;20.17;55.17;101583.38;5094186;28;20494;-55
2022/08/13 01:40:55;;;;;;;4.38;2.22;;;;;;;20.20;55.15;101582.25;5094416;28;20117;-61
2022/08/13 01:43:28;;;;;;;6.95;2.60;;;;;;;20.14;55.85;101582.81;5093726;28;20040;-51
2022/08/13 01:45:58;;;;;;;4.65;2.20;;;;;;;20.03;56.31;101583.84;5093772;28;20530;-53
2022/08/13 01:51:31;;;;;;;4.20;1.90;;;;;;;19.90;57.18;101576.97;5093126;28;20086;-53
2022/08/13 01:54:17;;;;;;;7.07;2.53;;;;;;;19.95;57.61;101575.69;5093912;28;20036;-53
2022/08/13 01:57:08;;;;;;;4.60;2.58;;;;;;;19.93;57.56;101584.69;5093824;28;20051;-62
2022/08/13 01:59:39;;;;;;;3.85;2.00;;;;;;;19.85;57.61;101583.72;5094321;28;20044;-53
2022/08/13 02:02:28;;;;;;;7.90;2.20;;;;;;;19.88;57.26;101578.13;5093908;28;20051;-52
2022/08/13 02:05:10;;;;;;;;;;;;;;;19.81;57.52;101574.31;5094818;28;20097;-61
2022/08/13 02:08:00;;;;;;;6.03;2.30;;;;;;;19.77;57.39;101579.09;5093651;28;19950;-61
2022/08/13 02:10:38;;;;;;;5.78;2.30;;;;;;;19.69;58.12;101574.44;5093447;28;20436;-61
2022/08/13 02:13:12;;;;;;;5.65;2.35;;;;;;;19.66;58.30;101577.41;5093357;28;20056;-52
2022/08/13 02:15:45;;;;;;;4.65;2.30;;;;;;;19.59;57.38;101582.47;5093932;28;20056;-60
2022/08/13 02:18:22;;;;;;;4.65;1.85;;;;;;;19.57;58.14;101584.41;5093642;28;20044;-54
2022/08/13 02:20:57;;;;;;;6.43;2.03;;;;;;;19.59;57.91;101584.28;5093619;28;20051;-54
2022/08/13 02:23:27;;;;;;;7.53;2.50;;;;;;;19.54;58.07;101584.72;5093587;28;20048;-54
2022/08/13 02:26:18;;;;;;;4.60;2.47;;;;;;;19.49;56.99;101583.44;5093556;28;20052;-54
2022/08/13 02:28:55;;;;;;;5.88;2.17;;;;;;;19.52;57.67;101572.50;5093425;28;20052;-53
2022/08/13 02:31:24;;;;;;;5.30;2.03;;;;;;;19.37;57.17;101572.94;5093455;28;20081;-54
2022/08/13 02:34:13;;;;;;;5.43;2.33;;;;;;;19.32;56.41;101575.16;5093121;28;20040;-62
2022/08/13 02:36:48;;;;;;;8.43;2.35;;;;;;;19.35;57.15;101580.22;5093560;28;20143;-62
2022/08/13 02:39:37;;;;;;;3.97;1.80;;;;;;;19.32;56.56;101580.50;5093325;28;20043;-61
2022/08/13 02:42:12;;;;;;;5.47;2.05;;;;;;;19.33;55.99;101576.81;5092890;28;20552;-54
2022/08/13 02:44:47;;;;;;;6.38;2.13;;;;;;;19.34;55.29;101578.53;5093441;28;20507;-55
2022/08/13 02:47:19;;;;;;;4.53;2.22;;;;;;;19.32;54.76;101579.63;5093178;28;20122;-62
2022/08/13 02:50:02;;;;;;;6.25;2.15;;;;;;;19.28;54.63;101580.91;5092721;28;20376;-54
2022/08/13 02:52:30;;;;;;;4.35;2.08;;;;;;;19.28;55.03;101572.91;5092866;28;20499;-54
2022/08/13 02:54:58;;;;;;;3.60;1.77;;;;;;;19.32;55.21;101575.16;5092946;28;20056;-62
2022/08/13 02:57:28;;;;;;;5.03;2.03;;;;;;;19.31;54.85;101577.97;5092566;28;20108;-54
2022/08/13 03:00:03;;;;;;;8.80;1.95;;;;;;;19.30;55.35;101577.13;5092462;28;20044;-62
2022/08/13 03:02:38;;;;;;;6.47;2.08;;;;;;;19.27;55.50;101576.56;5092815;28;20043;-62
2022/08/13 03:05:09;;;;;;;4.03;1.90;;;;;;;19.21;55.92;101567.28;5093013;28;20398;-54
2022/08/13 03:07:42;;;;;;;5.50;2.00;;;;;;;19.21;56.18;101561.94;5091476;28;20052;-61
2022/08/13 03:10:19;;;;;;;3.53;1.80;;;;;;;19.18;55.96;101567.56;5092692;28;20111;-51
2022/08/13 03:13:16;;;;;;;4.78;1.95;;;;;;;19.20;56.33;101574.44;5092986;28;20369;-55
2022/08/13 03:15:53;;;;;;;3.97;2.08;;;;;;;19.13;56.72;101568.00;5092706;28;20475;-62
2022/08/13 03:18:30;;;;;;;5.75;2.03;;;;;;;19.08;58.13;101572.88;5092717;28;20060;-55
2022/08/13 03:21:20;;;;;;;3.50;1.90;;;;;;;19.09;57.71;101569.25;5092637;28;20040;-55
2022/08/13 03:24:12;;;;;;;3.10;1.80;;;;;;;19.03;58.41;101575.97;5092272;28;20542;-53
2022/08/13 03:26:52;;;;;;;2.42;1.75;;;;;;;18.99;58.46;101571.91;5092846;28;20040;-56
2022/08/13 03:29:25;;;;;;;3.75;2.03;;;;;;;18.91;58.34;101571.75;5125309;28;20051;-55
2022/08/13 03:32:14;;;;;;;8.90;2.13;;;;;;;18.87;59.01;101580.94;5092191;28;20048;-62
2022/08/13 03:34:43;;;;;;;3.60;1.67;;;;;;;18.83;59.11;101587.53;5091629;28;20068;-53
2022/08/13 03:37:12;;;;;;;4.50;1.80;;;;;;;18.83;58.29;101590.19;5092826;28;20062;-56
2022/08/13 03:39:42;;;;;;;4.13;2.03;;;;;;;18.80;57.05;101588.66;5092544;28;20059;-61
2022/08/13 03:42:11;;;;;;;5.43;2.22;;;;;;;18.84;56.30;101586.53;5092131;28;20050;-61
2022/08/13 03:44:58;;;;;;;3.70;2.10;;;;;;;18.83;56.81;101592.84;5092278;28;20044;-61
2022/08/13 03:47:26;;;;;;;6.50;2.05;;;;;;;18.85;57.15;101585.56;5091934;28;20138;-62
2022/08/13 03:50:00;;;;;;;5.72;2.25;;;;;;;18.80;57.68;101586.00;5092201;28;20051;-62
2022/08/13 03:52:30;;;;;;;2.78;1.83;;;;;;;18.73;58.17;101580.38;5092462;28;20047;-61
2022/08/13 03:55:09;;;;;;;5.38;1.77;;;;;;;18.70;58.19;101588.59;5092170;28;20051;-60
2022/08/13 03:57:41;;;;;;;3.92;1.92;;;;;;;18.68;58.11;101585.25;5092410;28;20047;-52
2022/08/13 04:00:31;;;;;;;3.92;1.83;;;;;;;18.66;59.30;101578.38;5094177;28;20119;-55
2022/08/13 04:03:02;;;;;;;6.25;1.65;;;;;;;18.64;59.04;101583.84;5096329;28;20051;-55
2022/08/13 04:05:30;;;;;;;4.55;1.88;;;;;;;18.64;58.57;101585.63;5096026;28;20094;-63
2022/08/13 04:08:09;;;;;;;5.53;2.17;;;;;;;18.64;58.55;101586.50;5096283;28;20097;-61
2022/08/13 04:10:41;;;;;;;;;;;;;;;18.63;59.36;101582.13;5096123;28;20050;-60
2022/08/13 04:13:21;;;;;;;3.92;1.98;;;;;;;18.64;58.95;101580.31;5094277;28;19924;-63
2022/08/13 04:16:13;;;;;;;4.35;1.92;;;;;;;18.63;59.67;101579.47;5095795;28;20044;-62
2022/08/13 04:18:44;;;;;;;4.35;2.10;;;;;;;18.59;59.35;101584.22;5096318;28;20138;-62
2022/08/13 04:21:15;;;;;;;7.80;2.58;;;;;;;18.61;59.89;101578.78;5094392;28;20158;-62
2022/08/13 04:23:52;;;;;;;6.07;1.90;;;;;;;18.56;59.70;101578.34;5096033;28;20044;-62
2022/08/13 04:26:25;;;;;;;5.25;2.38;;;;;;;18.54;59.48;101578.47;5095790;28;20390;-54
2022/08/13 04:29:04;;;;;;;4.43;1.98;;;;;;;18.50;59.65;101586.84;5095488;28;20040;-54
2022/08/13 04:31:37;;;;;;;5.68;2.42;;;;;;;18.54;59.00;101589.13;5094406;28;20071;-53
2022/08/13 04:34:15;;;;;;;5.65;2.85;;;;;;;18.52;59.46;101592.91;5095515;28;20530;-61
2022/08/13 04:37:07;;;;;;;8.98;3.63;;;;;;;18.53;59.79;101594.59;5095544;28;20396;-53
2022/08/13 04:39:37;;;;;;;9.38;4.70;;;;;;;18.53;59.53;101590.09;5095480;28;20051;-56
2022/08/13 04:42:27;;;;;;;11.73;6.47;;;;;;;18.53;59.54;101591.94;5095574;28;20073;-53
2022/08/13 04:45:09;;;;;;;16.60;9.60;;;;;;;18.53;59.32;101594.59;5079550;28;20503;-54
2022/08/13 04:47:42;;;;;;;18.58;11.95;;;;;;;18.50;60.21;101590.38;5096144;28;20514;-60
2022/08/13 04:50:13;;;;;;;20.10;13.05;;;;;;;18.50;60.70;101589.50;5095288;28;20134;-54
2022/08/13 04:52:48;;;;;;;22.10;14.13;;;;;;;18.48;62.42;101591.47;5095675;28;20036;-52
2022/08/13 04:55:18;;;;;;;20.70;13.02;;;;;;;18.41;62.56;101600.00;5095581;28;20517;-61
2022/08/13 04:57:48;;;;;;;19.77;11.63;;;;;;;18.36;61.65;101596.88;5095363;28;20078;-56
2022/08/13 05:00:32;;;;;;;16.92;9.73;;;;;;;18.37;61.88;101600.41;5094215;28;20105;-54
2022/08/13 05:03:13;;;;;;;11.18;6.07;;;;;;;18.34;60.93;101606.84;5095017;28;20052;-61
2022/08/13 05:05:43;;;;;;;9.55;3.63;;;;;;;18.36;59.33;101606.69;5094819;28;20044;-60
2022/08/13 05:08:15;;;;;;;8.75;3.20;;;;;;;18.37;58.88;101606.56;5094585;28;20071;-54
2022/08/13 05:10:44;;;;;;;8.43;3.22;;;;;;;18.40;59.88;101610.78;5094659;28;20079;-53
2022/08/13 05:13:21;;;;;;;8.77;2.90;;;;;;;18.41;59.50;101602.66;5127339;27;20087;-60
2022/08/13 05:15:49;;;;;;;6.65;3.03;;;;;;;18.44;58.28;101611.38;5094508;28;20457;-55
2022/08/13 05:18:19;;;;;;;6.47;2.60;;;;;;;18.47;58.04;101611.09;5094667;28;20074;-62
2022/08/13 05:20:58;;;;;;;5.55;2.65;;;;;;;18.53;56.71;101616.72;5094648;28;20062;-53
2022/08/13 05:23:34;;;;;;;5.57;2.38;;;;;;;18.53;57.65;101610.56;5094689;28;20055;-61
2022/08/13 05:26:23;;;;;;;7.93;2.80;;;;;;;18.54;56.96;101613.09;5094474;28;20056;-61
2022/08/13 05:29:13;;;;;;;6.28;2.60;;;;;;;18.57;56.56;101612.81;5095004;28;20062;-53
2022/08/13 05:31:41;;;;;;;5.35;2.60;;;;;;;18.65;56.42;101604.19;5094348;28;20040;-55
2022/08/13 05:34:28;;;;;;;5.72;2.63;;;;;;;18.65;56.95;101604.19;5094145;28;20044;-62
2022/08/13 05:36:58;;;;;;;7.20;2.85;;;;;;;18.69;55.92;101608.25;5094405;28;20068;-55
2022/08/13 05:39:47;;;;;;;6.18;2.78;;;;;;;18.71;56.58;101611.63;5094094;28;20055;-55
2022/08/13 05:42:19;;;;;;;8.05;2.72;;;;;;;18.77;55.87;101607.56;5093896;28;20063;-62
2022/08/13 05:44:56;;;;;;;5.55;2.83;;;;;;;18.82;55.51;101607.19;5093888;28;20043;-57
2022/08/13 05:47:25;;;;;;;5.40;2.70;;;;;;;18.85;55.77;101598.91;5093756;28;20101;-62
2022/08/13 05:49:55;;;;;;;7.38;2.60;;;;;;;18.96;55.25;101604.13;5092521;28;20048;-54
2022/08/13 05:52:26;;;;;;;5.50;2.45;;;;;;;19.03;54.82;101599.09;5094030;28;20051;-52
2022/08/13 05:55:06;;;;;;;6.43;2.60;;;;;;;19.11;55.44;101601.09;5093977;28;20184;-63
2022/08/13 05:57:54;;;;;;;6.25;2.67;;;;;;;19.17;55.07;101597.88;5093953;28;20127;-55
2022/08/13 06:03:27;;;;;;;6.93;2.72;;;;;;;19.41;54.56;101605.47;5093845;28;20032;-61
2022/08/13 06:06:20;;;;;;;5.72;2.70;;;;;;;19.47;54.71;101609.41;5093847;28;20455;-53
2022/08/13 06:08:56;;;;;;;6.07;2.90;;;;;;;19.56;53.99;101605.91;5093574;28;20044;-54
2022/08/13 06:11:27;;;;;;;6.35;2.70;;;;;;;19.60;54.25;101607.31;5093299;28;20122;-54
2022/08/13 06:14:21;;;;;;;6.78;2.70;;;;;;;19.72;53.71;101603.50;5093153;28;20490;-63
2022/08/13 06:16:52;;;;;;;8.93;3.42;;;;;;;19.81;54.01;101607.19;5093382;28;20051;-55
2022/08/13 06:19:24;;;;;;;5.43;2.63;;;;;;;19.93;53.40;101602.53;5093371;28;20056;-53
2022/08/13 06:21:59;;;;;;;5.15;2.50;;;;;;;19.99;52.42;101603.78;5093397;28;20056;-53
2022/08/13 06:24:29;;;;;;;6.03;2.90;;;;;;;20.08;53.48;101602.91;5093124;28;20040;-61
2022/08/13 06:27:04;;;;;;;5.90;2.90;;;;;;;20.20;53.66;101600.94;5093190;28;20051;-63
2022/08/13 06:29:45;;;;;;;5.85;2.60;;;;;;;20.32;52.97;101601.59;5093240;28;20032;-62
2022/08/13 06:32:21;;;;;;;5.47;2.53;;;;;;;20.48;53.12;101600.97;5093447;28;20044;-63
2022/08/13 06:35:09;;;;;;;4.93;2.35;;;;;;;20.55;53.51;101602.09;5093258;28;20121;-63
2022/08/13 06:37:42;;;;;;;6.60;2.45;;;;;;;20.68;53.41;101605.28;5092934;28;20076;-56
2022/08/13 06:40:22;;;;;;;6.90;2.83;;;;;;;20.88;53.04;101589.97;5092861;28;20057;-56
2022/08/13 06:43:05;;;;;;;4.78;2.70;;;;;;;20.99;52.78;101599.63;5092703;28;20048;-55
2022/08/13 06:45:34;;;;;;;4.60;2.45;;;;;;;21.16;52.60;101594.44;5092437;28;20051;-54
2022/08/13 06:48:02;;;;;;;6.55;2.75;;;;;;;21.25;51.13;101598.88;5092370;28;20052;-56
2022/08/13 06:50:34;;;;;;;5.80;2.42;;;;;;;21.36;50.99;101604.00;5092570;28;20051;-56
2022/08/13 06:53:15;;;;;;;7.38;2.50;;;;;;;21.52;50.94;101599.81;5092098;28;20056;-55
2022/08/13 06:56:05;;;;;;;5.80;2.03;;;;;;;21.70;50.89;101600.66;5092295;28;20048;-54
2022/08/13 06:58:56;;;;;;;3.92;2.50;;;;;;;21.85;51.05;101606.28;5092392;28;20090;-56
2022/08/13 07:01:28;;;;;;;4.80;2.65;;;;;;;22.04;50.44;101607.94;5092544;28;20040;-64
2022/08/13 07:04:20;;;;;;;5.38;2.70;;;;;;;22.21;50.42;101608.03;5092352;28;20072;-57
2022/08/13 07:06:57;;;;;;;6.88;2.50;;;;;;;22.37;51.03;101610.00;5092245;28;20063;-58
2022/08/13 07:09:29;;;;;;;6.35;2.67;;;;;;;22.55;49.10;101610.78;5092333;28;20497;-53
2022/08/13 07:12:13;;;;;;;7.50;2.50;;;;;;;22.70;49.93;101618.19;5092257;28;20431;-57
2022/08/13 07:14:45;;;;;;;9.60;2.45;;;;;;;22.85;48.95;101613.06;5092556;28;20044;-55
2022/08/13 07:17:26;;;;;;;;;;;;;;;23.02;48.40;101616.66;5092860;28;20499;-64
2022/08/13 07:20:00;;;;;;;7.00;2.30;;;;;;;23.17;47.90;101612.34;5092413;28;20447;-64
2022/08/13 07:22:35;;;;;;;6.85;2.50;;;;;;;23.28;47.46;101617.38;5092468;28;20135;-65
2022/08/13 07:25:28;;;;;;;7.97;2.78;;;;;;;23.51;47.86;101626.66;5092447;28;20055;-65
2022/08/13 07:28:19;;;;;;;6.20;2.47;;;;;;;23.71;47.47;101614.59;5090853;28;20052;-65
2022/08/13 07:31:08;;;;;;;4.45;2.47;;;;;;;23.91;46.58;101619.63;5092286;28;20051;-65
2022/08/13 07:33:42;;;;;;;6.18;2.97;;;;;;;24.07;46.28;101622.28;5092471;28;20093;-65
2022/08/13 07:36:23;;;;;;;5.28;2.60;;;;;;;24.25;45.41;101619.41;5095944;28;20054;-51
2022/08/13 07:38:53;;;;;;;7.53;2.40;;;;;;;24.39;45.88;101617.88;5096220;28;20054;-64
2022/08/13 07:41:22;;;;;;;7.00;2.60;;;;;;;24.62;44.11;101627.88;5096045;28;20052;-55
2022/08/13 07:43:51;;;;;;;4.85;2.20;;;;;;;24.74;45.58;101615.72;5096259;28;20126;-54
2022/08/13 07:46:42;;;;;;;5.63;2.53;;;;;;;24.94;45.25;101615.31;5096092;28;20112;-65
2022/08/13 07:49:19;;;;;;;7.05;2.70;;;;;;;25.17;45.12;101617.19;5096023;28;20044;-56
2022/08/13 07:51:49;;;;;;;4.75;2.38;;;;;;;25.27;43.36;101612.41;5095835;28;20045;-55
2022/08/13 07:54:19;;;;;;;2.90;2.00;;;;;;;25.51;43.40;101614.13;5095828;28;20056;-56
2022/08/13 07:56:51;;;;;;;3.97;1.90;;;;;;;25.76;44.11;101603.97;5096065;28;20071;-65
2022/08/13 07:59:22;;;;;;;6.50;1.90;;;;;;;26.01;42.91;101611.00;5096069;28;20079;-66
2022/08/13 08:02:12;;;;;;;6.65;2.15;;;;;;;26.22;41.96;101605.75;5095953;28;20074;-65
2022/08/13 08:04:52;;;;;;;5.22;1.98;;;;;;;26.39;41.69;101602.88;5095745;28;20048;-57
2022/08/13 08:07:23;;;;;;;8.38;2.05;;;;;;;26.58;42.50;101599.59;5095578;28;20075;-56
2022/08/13 08:09:52;;;;;;;5.63;2.03;;;;;;;26.78;41.13;101602.56;5095626;28;20123;-66
2022/08/13 08:12:35;;;;;;;5.75;2.13;;;;;;;26.93;39.11;101596.31;5094223;28;20611;-57
2022/08/13 08:15:23;;;;;;;11.35;1.90;;;;;;;26.93;38.24;101602.53;5094211;28;20534;-56
2022/08/13 08:18:11;;;;;;;4.53;1.70;;;;;;;27.20;38.55;101601.97;5095348;28;20067;-65
2022/08/13 08:21:07;;;;;;;6.72;1.98;;;;;;;27.46;39.45;101612.22;5095273;28;20036;-54
2022/08/13 08:23:58;;;;;;;4.88;1.80;;;;;;;27.69;37.48;101611.19;5095500;28;20051;-55
2022/08/13 08:26:31;;;;;;;7.00;1.73;;;;;;;28.03;37.63;101609.59;5095370;28;20056;-55
2022/08/13 08:29:04;;;;;;;5.07;1.63;;;;;;;28.15;36.19;101608.00;5095458;28;20082;-57
2022/08/13 08:31:40;;;;;;;4.20;1.65;;;;;;;28.47;36.71;101608.41;5095450;28;20514;-65
2022/08/13 08:34:29;;;;;;;3.80;1.45;;;;;;;28.76;36.47;101604.59;5095196;28;20066;-66
2022/08/13 08:36:58;;;;;;;8.43;1.92;;;;;;;28.86;33.76;101603.38;5093918;28;20052;-53
2022/08/13 08:42:38;;;;;;;6.70;1.80;;;;;;;29.14;32.87;101611.34;5094766;28;20048;-54
2022/08/13 08:45:27;;;;;;;6.13;1.63;;;;;;;29.27;32.05;101606.00;5095151;28;20044;-54
2022/08/13 08:48:19;;;;;;;4.20;1.58;;;;;;;29.42;33.51;101597.66;5094755;28;20052;-57
2022/08/13 08:51:00;;;;;;;5.72;1.60;;;;;;;29.56;32.45;101609.34;5095573;28;20507;-57
2022/08/13 08:53:39;;;;;;;4.95;1.52;;;;;;;29.83;32.45;101603.91;5095904;28;20079;-65
2022/08/13 08:56:33;;;;;;;3.20;1.60;;;;;;;29.99;31.31;101610.81;5093961;28;20048;-56
2022/08/13 08:59:02;;;;;;;3.78;1.30;;;;;;;30.23;30.56;101598.44;5095175;28;20457;-57
2022/08/13 09:01:35;;;;;;;4.53;1.50;;;;;;;30.32;30.85;101601.75;5094798;28;20132;-55
2022/08/13 09:04:25;;;;;;;4.97;1.80;;;;;;;30.41;30.37;101602.38;5095276;28;20103;-57
2022/08/13 09:07:13;;;;;;;4.22;1.45;;;;;;;30.61;30.48;101605.00;5094988;28;20040;-56
2022/08/13 09:09:44;;;;;;;6.00;1.60;;;;;;;30.79;30.27;101599.72;5093357;28;20052;-56
2022/08/13 09:12:15;;;;;;;7.30;1.70;;;;;;;30.99;30.80;101599.59;5094849;28;20534;-65
2022/08/13 09:14:46;;;;;;;5.13;1.52;;;;;;;30.92;29.16;101585.22;5094549;28;20052;-54
2022/08/13 09:17:16;;;;;;;4.25;1.70;;;;;;;30.96;30.00;101589.16;5094607;28;20094;-65
2022/08/13 09:19:44;;;;;;;3.80;1.40;;;;;;;31.09;30.37;101587.47;5094746;28;20128;-65
2022/08/13 09:22:20;;;;;;;2.55;1.30;;;;;;;31.32;29.64;101592.31;5094458;28;20048;-55
2022/08/13 09:24:56;;;;;;;4.38;1.75;;;;;;;31.39;28.71;101598.53;5094080;28;20048;-65
2022/08/13 09:27:30;;;;;;;5.65;1.88;;;;;;;31.57;28.46;101595.03;5094277;28;20135;-66
2022/08/13 09:30:19;;;;;;;6.47;1.90;;;;;;;31.39;27.99;101594.94;5094319;28;20051;-56
2022/08/13 09:32:56;;;;;;;3.67;1.42;;;;;;;31.76;28.61;101590.50;5094626;28;20048;-57
2022/08/13 09:35:28;;;;;;;5.15;1.70;;;;;;;31.66;28.11;101591.00;5094651;28;20543;-59
2022/08/13 09:38:06;;;;;;;6.65;1.70;;;;;;;31.88;28.62;101589.75;5094176;28;20067;-65
2022/08/13 09:40:44;;;;;;;4.20;1.50;;;;;;;32.10;28.27;101587.44;5094018;28;20405;-65
2022/08/13 09:43:22;;;;;;;2.17;1.27;;;;;;;32.27;28.92;101582.25;5094213;28;20375;-64
2022/08/13 09:46:11;;;;;;;2.80;1.50;;;;;;;32.05;27.78;101588.09;5093643;28;20116;-56
2022/08/13 09:48:50;;;;;;;3.90;1.38;;;;;;;32.07;27.36;101582.44;5093829;28;20376;-66
2022/08/13 09:51:22;;;;;;;4.97;1.50;;;;;;;32.31;26.89;101575.28;5093045;28;20051;-65
2022/08/13 09:54:10;;;;;;;5.10;1.40;;;;;;;32.37;26.18;101574.38;5093698;28;20052;-57
2022/08/13 09:56:40;;;;;;;2.83;1.50;;;;;;;32.47;26.34;101571.94;5093641;28;20094;-65
2022/08/13 09:59:10;;;;;;;4.35;1.60;;;;;;;32.66;25.65;101577.38;5093744;28;20056;-56
2022/08/13 10:01:43;;;;;;;4.85;1.42;;;;;;;33.02;27.76;101562.00;5093755;28;20059;-65
2022/08/13 10:04:26;;;;;;;2.58;1.25;;;;;;;33.00;25.90;101569.56;5093524;28;20480;-65
2022/08/13 10:06:58;;;;;;;3.83;1.42;;;;;;;33.07;25.89;101564.84;5093769;28;20043;-65
2022/08/13 10:09:33;;;;;;;5.30;1.67;;;;;;;33.08;25.53;101568.38;5093426;28;20055;-58
2022/08/13 10:12:09;;;;;;;2.10;1.15;;;;;;;33.34;25.27;101572.63;5092903;28;20040;-65
2022/08/13 10:14:48;;;;;;;3.67;1.30;;;;;;;33.46;25.33;101564.44;5091908;28;20044;-56
2022/08/13 10:17:25;;;;;;;3.90;1.20;;;;;;;33.72;25.36;101563.16;5093181;28;20436;-64
2022/08/13 10:20:17;;;;;;;3.65;1.17;;;;;;;33.59;23.21;101566.13;5092892;28;20040;-64
2022/08/13 10:22:47;;;;;;;5.75;1.27;;;;;;;33.50;24.88;101558.31;5093109;28;20054;-65
2022/08/13 10:25:16;;;;;;;3.65;1.40;;;;;;;33.50;24.34;101550.13;5093505;28;20123;-65
2022/08/13 10:27:46;;;;;;;1.55;1.08;;;;;;;33.88;23.50;101552.63;5093012;28;20074;-56
2022/08/13 10:30:18;;;;;;;2.03;1.30;;;;;;;34.18;23.59;101561.47;5093134;28;20578;-65
2022/08/13 10:33:06;;;;;;;1.85;1.00;;;;;;;34.56;23.38;101548.28;5093100;28;20044;-56
2022/08/13 10:35:37;;;;;;;4.35;1.40;;;;;;;34.58;23.29;101546.16;5093153;28;20360;-57
2022/08/13 10:38:14;;;;;;;1.80;1.00;;;;;;;34.60;23.15;101537.72;5093121;28;20044;-57
2022/08/13 10:40:46;;;;;;;1.77;1.20;;;;;;;34.56;24.06;101536.56;5092372;28;20131;-57
2022/08/13 10:43:16;;;;;;;3.75;1.38;;;;;;;35.03;22.71;101541.78;5092544;28;20090;-66
2022/08/13 10:45:56;;;;;;;2.70;1.33;;;;;;;35.02;21.78;101540.94;5092671;28;20109;-65
2022/08/13 10:48:35;;;;;;;4.93;1.40;;;;;;;35.40;22.12;101538.56;5092623;28;20048;-57
2022/08/13 10:51:05;;;;;;;2.63;1.20;;;;;;;35.47;22.96;101531.00;5092829;28;20040;-66
2022/08/13 10:56:21;;;;;;;5.78;1.38;;;;;;;35.51;21.53;101532.16;5092861;28;20479;-65
2022/08/13 10:58:55;;;;;;;1.80;1.13;;;;;;;35.05;22.12;101534.16;5089973;28;20042;-65
2022/08/13 11:01:26;;;;;;;3.65;1.27;;;;;;;35.04;21.96;101535.22;5088390;28;20052;-61
2022/08/13 11:03:58;;;;;;;1.48;1.20;;;;;;;35.40;21.58;101524.91;5088775;28;20040;-64
2022/08/13 11:06:35;;;;;;;1.65;1.10;;;;;;;35.31;21.08;101529.09;5089722;28;20044;-57
2022/08/13 11:09:06;;;;;;;2.63;1.20;;;;;;;35.27;21.35;101536.97;5089310;28;20105;-65
2022/08/13 11:11:52;;;;;;;1.60;1.20;;;;;;;35.54;20.65;101519.91;5089324;28;20048;-67
2022/08/13 11:14:22;;;;;;;1.40;1.10;;;;;;;35.81;21.06;101530.94;5090007;28;20067;-65
2022/08/13 11:17:04;;;;;;;2.88;1.08;;;;;;;35.76;20.71;101525.38;5089786;28;20068;-66
2022/08/13 11:19:52;;;;;;;2.95;1.10;;;;;;;35.59;20.74;101519.97;5088870;28;20044;-65
2022/08/13 11:22:27;;;;;;;2.47;1.40;;;;;;;36.20;21.79;101524.59;5089883;28;20062;-64
2022/08/13 11:24:56;;;;;;;2.85;1.30;;;;;;;35.74;20.13;101518.50;5089585;28;20044;-63
2022/08/13 11:27:25;;;;;;;4.25;1.40;;;;;;;35.96;21.30;101519.38;5089766;28;20131;-62
2022/08/13 11:30:16;;;;;;;3.08;1.10;;;;;;;35.79;20.31;101513.13;5088476;28;20048;-64
2022/08/13 11:33:01;;;;;;;2.65;1.20;;;;;;;36.21;20.20;101520.78;5089032;28;20123;-56
2022/08/13 11:35:34;;;;;;;4.38;1.30;;;;;;;36.55;20.07;101515.13;5090071;28;20446;-65
2022/08/13 11:38:10;;;;;;;2.20;1.02;;;;;;;36.77;20.77;101514.25;5089436;28;20048;-58
2022/08/13 11:40:39;;;;;;;2.90;1.23;;;;;;;37.10;20.54;101507.69;5088891;28;20040;-66
2022/08/13 11:43:08;;;;;;;4.28;1.20;;;;;;;36.70;19.27;101506.22;5089911;28;20063;-65
2022/08/13 11:45:45;;;;;;;5.10;1.05;;;;;;;36.80;19.62;101502.75;5088109;28;20076;-65
2022/08/13 11:48:16;;;;;;;2.13;0.98;;;;;;;37.06;18.89;101498.34;5089469;28;20043;-64
2022/08/13 11:51:03;;;;;;;3.50;1.30;;;;;;;37.29;19.23;101488.09;5089156;28;20054;-57
2022/08/13 11:53:34;;;;;;;1.30;1.00;;;;;;;37.50;18.01;101480.84;5089282;28;20094;-64
2022/08/13 11:56:22;;;;;;;2.08;1.02;;;;;;;37.32;19.21;101493.03;5089300;28;20055;-65
2022/08/13 11:58:55;;;;;;;1.25;1.00;;;;;;;37.47;19.42;101487.66;5089237;28;20043;-66
2022/08/13 12:01:25;;;;;;;3.92;1.30;;;;;;;37.68;18.92;101487.75;5087723;28;20101;-65
2022/08/13 12:04:10;;;;;;;1.90;1.10;;;;;;;37.76;17.62;101480.94;5089083;28;20052;-57
2022/08/13 12:06:45;;;;;;;2.08;1.05;;;;;;;37.44;18.17;101477.25;5089149;28;20059;-58
2022/08/13 12:09:17;;;;;;;4.18;1.15;;;;;;;37.37;18.82;101474.75;5089260;28;20036;-65
2022/08/13 12:12:06;;;;;;;1.02;0.90;;;;;;;37.65;18.61;101482.81;5088875;28;20044;-58
2022/08/13 12:14:39;;;;;;;1.95;0.90;;;;;;;37.82;17.51;101486.22;5087673;28;20128;-58
2022/08/13 12:17:08;;;;;;;2.80;1.15;;;;;;;37.69;18.26;101475.72;5088920;28;20047;-65
2022/08/13 12:19:37;;;;;;;1.13;0.93;;;;;;;38.06;17.98;101477.50;5088881;28;20127;-64
2022/08/13 12:22:06;;;;;;;3.83;1.27;;;;;;;38.24;17.14;101480.88;5092142;28;20056;-57
2022/08/13 12:24:35;;;;;;;1.42;1.00;;;;;;;37.96;18.09;101480.22;5092643;28;20055;-58
2022/08/13 12:27:04;;;;;;;2.17;1.00;;;;;;;38.11;17.64;101473.94;5091778;28;20483;-57
2022/08/13 12:29:36;;;;;;;3.40;1.20;;;;;;;38.15;16.91;101467.66;5092007;28;20094;-59